createdAt,value
2022-08-30T00:01:03.610Z,19.26
2022-08-30T00:02:08.824Z,19.25
2022-08-30T00:03:16.148Z,19.22
2022-08-30T00:04:21.570Z,19.23
2022-08-30T00:05:27.083Z,19.23
2022-08-30T00:06:32.830Z,19.23
2022-08-30T00:07:37.363Z,19.23
2022-08-30T00:08:45.234Z,19.21
2022-08-30T00:09:55.932Z,19.20
2022-08-30T00:11:12.008Z,19.18
2022-08-30T00:12:16.903Z,19.22
2022-08-30T00:13:31.688Z,19.17
2022-08-30T00:14:38.043Z,19.19
2022-08-30T00:15:44.616Z,19.18
2022-08-30T00:16:50.310Z,19.14
2022-08-30T00:17:56.140Z,19.12
2022-08-30T00:19:02.697Z,18.93
2022-08-30T00:20:13.757Z,19.08
2022-08-30T00:21:18.404Z,19.05
2022-08-30T00:22:34.678Z,19.02
2022-08-30T00:24:00.689Z,19.00
2022-08-30T00:25:10.442Z,18.97
2022-08-30T00:26:18.112Z,18.96
2022-08-30T00:27:26.019Z,18.88
2022-08-30T00:28:34.455Z,18.93
2022-08-30T00:29:41.366Z,18.93
2022-08-30T00:30:50.732Z,18.93
2022-08-30T00:31:55.705Z,18.92
2022-08-30T00:33:00.739Z,18.93
2022-08-30T00:34:05.672Z,18.88
2022-08-30T00:35:14.733Z,18.81
2022-08-30T00:36:19.139Z,18.77
2022-08-30T00:37:24.029Z,18.72
2022-08-30T00:38:29.257Z,18.69
2022-08-30T00:39:33.803Z,18.71
2022-08-30T00:40:44.855Z,18.71
2022-08-30T00:41:52.311Z,18.69
2022-08-30T00:43:02.189Z,18.72
2022-08-30T00:44:10.692Z,18.74
2022-08-30T00:45:30.221Z,18.72
2022-08-30T00:46:36.672Z,18.69
2022-08-30T00:47:42.218Z,18.69
2022-08-30T00:48:51.817Z,18.67
2022-08-30T00:50:00.662Z,18.64
2022-08-30T00:51:10.342Z,18.64
2022-08-30T00:52:18.614Z,18.56
2022-08-30T00:53:34.714Z,18.57
2022-08-30T00:54:45.438Z,18.58
2022-08-30T00:56:07.700Z,18.56
2022-08-30T00:57:15.062Z,18.59
2022-08-30T00:58:34.804Z,18.59
2022-08-30T00:59:44.479Z,18.60
2022-08-30T01:00:55.380Z,18.62
2022-08-30T01:02:07.324Z,18.62
2022-08-30T01:03:13.017Z,18.60
2022-08-30T01:04:25.798Z,18.59
2022-08-30T01:05:33.665Z,18.61
2022-08-30T01:06:40.350Z,18.58
2022-08-30T01:07:45.953Z,18.60
2022-08-30T01:08:50.564Z,18.58
2022-08-30T01:09:56.214Z,18.59
2022-08-30T01:11:02.367Z,18.61
2022-08-30T01:12:11.490Z,18.62
2022-08-30T01:13:31.577Z,18.64
2022-08-30T01:14:36.078Z,18.50
2022-08-30T01:15:46.448Z,18.62
2022-08-30T01:16:57.976Z,18.64
2022-08-30T01:18:07.915Z,18.52
2022-08-30T01:19:41.627Z,18.66
2022-08-30T01:21:00.707Z,18.66
2022-08-30T01:22:38.545Z,18.66
2022-08-30T01:23:51.438Z,18.65
2022-08-30T01:25:02.248Z,18.63
2022-08-30T01:26:10.152Z,18.48
2022-08-30T01:27:22.788Z,18.61
2022-08-30T01:28:36.565Z,18.59
2022-08-30T01:29:46.323Z,18.59
2022-08-30T01:30:55.586Z,18.58
2022-08-30T01:32:09.242Z,18.58
2022-08-30T01:33:14.077Z,18.48
2022-08-30T01:34:22.609Z,18.53
2022-08-30T01:35:29.989Z,18.50
2022-08-30T01:36:46.777Z,18.50
2022-08-30T01:37:51.755Z,18.48
2022-08-30T01:38:58.905Z,18.45
2022-08-30T01:40:04.910Z,18.43
2022-08-30T01:41:27.969Z,18.39
2022-08-30T01:42:32.656Z,18.43
2022-08-30T01:43:37.192Z,18.43
2022-08-30T01:44:42.411Z,18.42
2022-08-30T01:45:46.978Z,18.41
2022-08-30T01:46:54.943Z,18.38
2022-08-30T01:48:03.715Z,18.38
2022-08-30T01:49:16.741Z,18.39
2022-08-30T01:50:25.443Z,18.39
2022-08-30T01:51:33.194Z,18.39
2022-08-30T01:52:42.280Z,18.39
2022-08-30T01:53:46.832Z,18.40
2022-08-30T01:54:54.246Z,18.42
2022-08-30T01:55:58.796Z,18.27
2022-08-30T01:57:05.874Z,18.39
2022-08-30T01:58:13.235Z,18.39
2022-08-30T01:59:18.496Z,18.32
2022-08-30T02:00:23.747Z,18.29
2022-08-30T02:01:30.925Z,18.29
2022-08-30T02:02:41.308Z,18.23
2022-08-30T02:03:47.787Z,18.22
2022-08-30T02:04:55.579Z,18.09
2022-08-30T02:06:10.522Z,18.20
2022-08-30T02:07:16.968Z,18.20
2022-08-30T02:08:21.773Z,18.14
2022-08-30T02:09:27.330Z,18.20
2022-08-30T02:10:34.097Z,18.18
2022-08-30T02:11:39.012Z,18.14
2022-08-30T02:12:43.837Z,18.08
2022-08-30T02:13:48.047Z,18.07
2022-08-30T02:14:53.166Z,18.06
2022-08-30T02:16:01.610Z,18.00
2022-08-30T02:17:10.378Z,18.03
2022-08-30T02:18:17.602Z,18.03
2022-08-30T02:19:21.874Z,17.97
2022-08-30T02:20:28.565Z,18.03
2022-08-30T02:21:32.727Z,18.02
2022-08-30T02:22:49.310Z,17.90
2022-08-30T02:23:55.912Z,18.02
2022-08-30T02:25:04.278Z,18.02
2022-08-30T02:26:11.156Z,18.00
2022-08-30T02:27:17.702Z,17.99
2022-08-30T02:28:23.024Z,18.02
2022-08-30T02:29:29.942Z,18.01
2022-08-30T02:30:34.831Z,18.03
2022-08-30T02:31:39.287Z,18.02
2022-08-30T02:32:54.551Z,18.01
2022-08-30T02:34:02.162Z,18.02
2022-08-30T02:35:14.761Z,18.01
2022-08-30T02:36:21.985Z,18.04
2022-08-30T02:37:28.553Z,18.00
2022-08-30T02:38:32.644Z,17.88
2022-08-30T02:39:37.581Z,17.86
2022-08-30T02:40:42.256Z,17.89
2022-08-30T02:41:53.740Z,17.89
2022-08-30T02:42:59.941Z,17.90
2022-08-30T02:44:05.981Z,17.89
2022-08-30T02:45:12.215Z,17.87
2022-08-30T02:46:21.322Z,17.88
2022-08-30T02:47:29.474Z,17.86
2022-08-30T02:48:34.518Z,17.87
2022-08-30T02:49:38.586Z,17.86
2022-08-30T02:50:48.282Z,17.87
2022-08-30T02:51:54.336Z,17.89
2022-08-30T02:52:59.135Z,17.88
2022-08-30T02:54:06.744Z,17.88
2022-08-30T02:55:12.047Z,17.87
2022-08-30T02:56:16.520Z,17.86
2022-08-30T02:57:23.709Z,17.83
2022-08-30T02:58:28.112Z,17.86
2022-08-30T02:59:40.064Z,17.84
2022-08-30T03:00:45.057Z,17.87
2022-08-30T03:01:50.294Z,17.87
2022-08-30T03:02:58.535Z,17.85
2022-08-30T03:04:03.174Z,17.87
2022-08-30T03:05:16.154Z,17.84
2022-08-30T03:06:24.976Z,17.89
2022-08-30T03:07:30.284Z,17.86
2022-08-30T03:08:34.831Z,17.86
2022-08-30T03:09:39.963Z,17.83
2022-08-30T03:10:46.220Z,17.83
2022-08-30T03:11:54.074Z,17.80
2022-08-30T03:12:59.383Z,17.80
2022-08-30T03:14:04.665Z,17.78
2022-08-30T03:15:13.490Z,17.74
2022-08-30T03:16:21.987Z,17.76
2022-08-30T03:17:28.121Z,17.76
2022-08-30T03:18:35.014Z,17.73
2022-08-30T03:19:39.005Z,17.75
2022-08-30T03:20:44.041Z,17.74
2022-08-30T03:21:59.555Z,17.74
2022-08-30T03:23:06.841Z,17.68
2022-08-30T03:24:11.611Z,17.68
2022-08-30T03:25:17.597Z,17.63
2022-08-30T03:26:24.546Z,17.68
2022-08-30T03:27:30.050Z,17.70
2022-08-30T03:28:35.469Z,17.71
2022-08-30T03:29:40.517Z,17.62
2022-08-30T03:30:47.260Z,17.68
2022-08-30T03:31:53.894Z,17.66
2022-08-30T03:33:00.581Z,17.64
2022-08-30T03:34:06.344Z,17.64
2022-08-30T03:35:13.249Z,17.63
2022-08-30T03:36:20.292Z,17.59
2022-08-30T03:37:27.539Z,17.61
2022-08-30T03:38:37.728Z,17.61
2022-08-30T03:39:45.905Z,17.62
2022-08-30T03:40:52.881Z,17.59
2022-08-30T03:42:03.378Z,17.64
2022-08-30T03:43:10.655Z,17.53
2022-08-30T03:44:18.087Z,17.59
2022-08-30T03:45:23.912Z,17.58
2022-08-30T03:46:34.470Z,17.50
2022-08-30T03:47:45.143Z,17.52
2022-08-30T03:48:49.712Z,17.51
2022-08-30T03:49:55.603Z,17.52
2022-08-30T03:51:00.470Z,17.51
2022-08-30T03:52:06.022Z,17.38
2022-08-30T03:53:12.236Z,17.30
2022-08-30T03:54:17.648Z,17.28
2022-08-30T03:55:23.056Z,17.27
2022-08-30T03:56:28.932Z,17.25
2022-08-30T03:57:34.051Z,17.27
2022-08-30T03:58:41.334Z,17.32
2022-08-30T03:59:48.813Z,17.34
2022-08-30T04:00:56.681Z,17.33
2022-08-30T04:02:02.104Z,17.27
2022-08-30T04:03:08.379Z,17.25
2022-08-30T04:04:16.291Z,17.22
2022-08-30T04:05:22.820Z,17.17
2022-08-30T04:06:31.114Z,17.14
2022-08-30T04:07:41.226Z,17.11
2022-08-30T04:08:48.606Z,17.12
2022-08-30T04:09:54.712Z,17.13
2022-08-30T04:11:00.645Z,17.12
2022-08-30T04:12:08.332Z,17.17
2022-08-30T04:13:13.356Z,17.20
2022-08-30T04:14:22.028Z,17.20
2022-08-30T04:15:26.976Z,17.22
2022-08-30T04:16:31.279Z,17.17
2022-08-30T04:17:36.687Z,17.24
2022-08-30T04:18:42.923Z,17.16
2022-08-30T04:19:50.918Z,17.25
2022-08-30T04:21:01.514Z,17.30
2022-08-30T04:22:06.290Z,17.34
2022-08-30T04:23:12.658Z,17.24
2022-08-30T04:24:17.069Z,17.24
2022-08-30T04:25:25.774Z,17.36
2022-08-30T04:26:30.651Z,17.39
2022-08-30T04:27:36.720Z,17.44
2022-08-30T04:28:40.965Z,17.43
2022-08-30T04:29:47.404Z,17.46
2022-08-30T04:30:54.586Z,17.44
2022-08-30T04:31:59.055Z,17.47
2022-08-30T04:33:08.286Z,17.48
2022-08-30T04:34:17.625Z,17.50
2022-08-30T04:35:24.406Z,17.34
2022-08-30T04:36:29.567Z,17.49
2022-08-30T04:37:39.706Z,17.51
2022-08-30T04:38:44.184Z,17.54
2022-08-30T04:39:51.496Z,17.54
2022-08-30T04:41:00.451Z,17.55
2022-08-30T04:42:07.305Z,17.58
2022-08-30T04:43:13.616Z,17.59
2022-08-30T04:44:19.266Z,17.62
2022-08-30T04:45:27.633Z,17.63
2022-08-30T04:46:32.507Z,17.65
2022-08-30T04:47:40.852Z,17.62
2022-08-30T04:48:46.735Z,17.71
2022-08-30T04:49:52.284Z,17.68
2022-08-30T04:50:56.769Z,17.71
2022-08-30T04:52:01.866Z,17.74
2022-08-30T04:53:06.629Z,17.76
2022-08-30T04:54:12.832Z,17.77
2022-08-30T04:55:20.274Z,17.48
2022-08-30T04:56:28.717Z,17.80
2022-08-30T04:57:33.596Z,17.82
2022-08-30T04:58:40.151Z,17.80
2022-08-30T04:59:45.090Z,17.79
2022-08-30T05:00:53.447Z,17.80
2022-08-30T05:01:57.978Z,17.81
2022-08-30T05:03:02.716Z,17.84
2022-08-30T05:04:13.950Z,17.86
2022-08-30T05:05:38.557Z,17.86
2022-08-30T05:06:45.794Z,17.89
2022-08-30T05:07:52.252Z,17.92
2022-08-30T05:08:56.802Z,17.92
2022-08-30T05:10:02.281Z,17.95
2022-08-30T05:11:14.380Z,17.98
2022-08-30T05:12:21.566Z,17.99
2022-08-30T05:13:35.552Z,18.02
2022-08-30T05:14:41.399Z,18.05
2022-08-30T05:15:48.239Z,18.10
2022-08-30T05:16:56.808Z,18.13
2022-08-30T05:18:05.797Z,18.20
2022-08-30T05:19:10.743Z,18.23
2022-08-30T05:20:16.554Z,18.31
2022-08-30T05:21:28.365Z,18.35
2022-08-30T05:22:32.525Z,18.40
2022-08-30T05:23:39.497Z,18.44
2022-08-30T05:24:44.136Z,18.53
2022-08-30T05:25:48.426Z,18.62
2022-08-30T05:26:55.521Z,18.64
2022-08-30T05:28:01.445Z,18.77
2022-08-30T05:29:09.932Z,18.86
2022-08-30T05:30:22.875Z,18.97
2022-08-30T05:31:40.269Z,19.00
2022-08-30T05:32:48.005Z,19.22
2022-08-30T05:33:55.256Z,19.28
2022-08-30T05:35:00.305Z,19.41
2022-08-30T05:36:12.453Z,19.48
2022-08-30T05:37:17.106Z,19.63
2022-08-30T05:38:21.704Z,19.71
2022-08-30T05:39:46.944Z,19.83
2022-08-30T05:40:55.135Z,19.94
2022-08-30T05:42:00.735Z,20.03
2022-08-30T05:43:07.952Z,20.08
2022-08-30T05:44:12.798Z,20.19
2022-08-30T05:45:17.973Z,20.30
2022-08-30T05:46:23.826Z,20.40
2022-08-30T05:47:30.889Z,20.48
2022-08-30T05:48:36.611Z,20.59
2022-08-30T05:49:41.946Z,20.68
2022-08-30T05:50:48.126Z,20.78
2022-08-30T05:51:52.857Z,20.82
2022-08-30T05:52:57.631Z,20.87
2022-08-30T05:54:02.149Z,20.92
2022-08-30T05:55:10.039Z,21.01
2022-08-30T05:56:18.240Z,21.11
2022-08-30T05:57:23.984Z,21.19
2022-08-30T05:58:30.050Z,21.35
2022-08-30T05:59:37.629Z,21.46
2022-08-30T06:00:42.442Z,21.57
2022-08-30T06:01:50.176Z,21.71
2022-08-30T06:02:57.342Z,21.81
2022-08-30T06:04:12.707Z,21.92
2022-08-30T06:05:17.672Z,22.05
2022-08-30T06:06:25.186Z,22.18
2022-08-30T06:07:32.585Z,22.30
2022-08-30T06:08:49.259Z,22.47
2022-08-30T06:09:58.104Z,22.62
2022-08-30T06:11:03.030Z,22.76
2022-08-30T06:12:08.602Z,22.90
2022-08-30T06:13:16.289Z,23.06
2022-08-30T06:14:27.016Z,23.21
2022-08-30T06:15:34.818Z,23.35
2022-08-30T06:16:41.682Z,23.48
2022-08-30T06:17:49.629Z,23.65
2022-08-30T06:18:57.306Z,23.79
2022-08-30T06:20:06.542Z,23.96
2022-08-30T06:21:27.197Z,24.10
2022-08-30T06:22:34.631Z,24.26
2022-08-30T06:23:38.673Z,24.36
2022-08-30T06:24:57.107Z,24.50
2022-08-30T06:26:08.469Z,24.58
2022-08-30T06:27:16.062Z,24.86
2022-08-30T06:28:21.051Z,25.05
2022-08-30T06:29:29.046Z,25.32
2022-08-30T06:30:34.722Z,25.56
2022-08-30T06:31:57.943Z,25.89
2022-08-30T06:33:04.588Z,26.17
2022-08-30T06:34:09.155Z,26.64
2022-08-30T06:35:14.521Z,27.12
2022-08-30T06:36:26.984Z,27.64
2022-08-30T06:37:33.794Z,28.17
2022-08-30T06:38:41.420Z,28.61
2022-08-30T06:39:46.042Z,28.96
2022-08-30T06:40:54.569Z,29.43
2022-08-30T06:41:58.935Z,29.90
2022-08-30T06:43:03.740Z,30.50
2022-08-30T06:44:12.207Z,30.99
2022-08-30T06:45:16.967Z,31.53
2022-08-30T06:46:30.141Z,32.08
2022-08-30T06:47:35.240Z,32.66
2022-08-30T06:48:45.146Z,33.02
2022-08-30T06:49:52.279Z,33.44
2022-08-30T06:50:59.503Z,33.85
2022-08-30T06:52:12.908Z,34.27
2022-08-30T06:53:17.691Z,34.83
2022-08-30T06:54:22.206Z,35.16
2022-08-30T06:55:27.983Z,35.21
2022-08-30T06:56:36.919Z,34.91
2022-08-30T06:57:46.005Z,34.10
2022-08-30T06:58:52.881Z,33.36
2022-08-30T06:59:58.644Z,32.78
2022-08-30T07:01:04.618Z,32.35
2022-08-30T07:02:09.879Z,32.04
2022-08-30T07:03:17.479Z,31.74
2022-08-30T07:04:22.935Z,31.44
2022-08-30T07:05:29.987Z,31.27
2022-08-30T07:06:41.215Z,31.03
2022-08-30T07:07:48.587Z,30.98
2022-08-30T07:08:56.637Z,30.90
2022-08-30T07:10:08.204Z,30.91
2022-08-30T07:11:17.747Z,31.11
2022-08-30T07:12:24.984Z,30.96
2022-08-30T07:13:33.038Z,30.76
2022-08-30T07:14:38.996Z,30.70
2022-08-30T07:15:45.573Z,30.72
2022-08-30T07:16:52.179Z,30.58
2022-08-30T07:18:15.483Z,30.29
2022-08-30T07:19:23.697Z,29.94
2022-08-30T07:20:40.532Z,29.69
2022-08-30T07:21:46.718Z,29.33
2022-08-30T07:22:54.770Z,29.03
2022-08-30T07:24:01.735Z,28.65
2022-08-30T07:25:06.216Z,28.56
2022-08-30T07:26:15.572Z,28.29
2022-08-30T07:27:20.112Z,28.06
2022-08-30T07:28:25.232Z,27.87
2022-08-30T07:29:30.117Z,27.69
2022-08-30T07:30:39.121Z,27.55
2022-08-30T07:31:46.512Z,27.39
2022-08-30T07:32:51.223Z,27.23
2022-08-30T07:34:00.359Z,27.19
2022-08-30T07:35:06.210Z,27.22
2022-08-30T07:36:12.565Z,27.29
2022-08-30T07:37:18.258Z,27.37
2022-08-30T07:38:26.122Z,27.36
2022-08-30T07:39:41.643Z,27.44
2022-08-30T07:40:50.465Z,27.55
2022-08-30T07:42:00.911Z,27.62
2022-08-30T07:43:05.905Z,27.85
2022-08-30T07:44:14.778Z,27.96
2022-08-30T07:45:20.407Z,28.02
2022-08-30T07:46:27.214Z,28.06
2022-08-30T07:47:33.617Z,28.08
2022-08-30T07:48:39.379Z,28.14
2022-08-30T07:49:44.806Z,28.16
2022-08-30T07:50:53.644Z,28.14
2022-08-30T07:52:01.196Z,28.10
2022-08-30T07:53:17.498Z,28.04
2022-08-30T07:54:26.602Z,28.02
2022-08-30T07:55:34.323Z,28.00
2022-08-30T07:56:43.114Z,27.98
2022-08-30T07:57:48.273Z,27.98
2022-08-30T07:58:54.312Z,27.98
2022-08-30T08:00:03.748Z,28.08
2022-08-30T08:01:13.546Z,28.10
2022-08-30T08:02:19.882Z,28.20
2022-08-30T08:03:36.011Z,28.44
2022-08-30T08:04:48.009Z,29.34
2022-08-30T08:05:59.613Z,30.01
2022-08-30T08:07:10.666Z,30.56
2022-08-30T08:08:21.818Z,31.02
2022-08-30T08:09:27.126Z,31.36
2022-08-30T08:10:31.877Z,31.42
2022-08-30T08:11:37.568Z,31.73
2022-08-30T08:12:42.479Z,32.21
2022-08-30T08:13:53.123Z,32.60
2022-08-30T08:15:04.139Z,32.81
2022-08-30T08:16:13.033Z,33.37
2022-08-30T08:17:22.985Z,33.58
2022-08-30T08:18:30.110Z,33.81
2022-08-30T08:19:34.850Z,34.05
2022-08-30T08:20:39.993Z,34.17
2022-08-30T08:21:50.400Z,34.75
2022-08-30T08:23:01.855Z,35.11
2022-08-30T08:24:09.016Z,35.08
2022-08-30T08:25:15.316Z,35.19
2022-08-30T08:26:21.842Z,35.53
2022-08-30T08:27:26.111Z,35.77
2022-08-30T08:28:33.712Z,35.73
2022-08-30T08:29:42.250Z,35.65
2022-08-30T08:30:49.919Z,35.83
2022-08-30T08:31:59.793Z,35.94
2022-08-30T08:33:17.549Z,36.30
2022-08-30T08:34:31.300Z,36.30
2022-08-30T08:35:36.959Z,36.12
2022-08-30T08:36:43.485Z,36.13
2022-08-30T08:37:47.772Z,36.22
2022-08-30T08:38:53.356Z,36.51
2022-08-30T08:40:03.464Z,36.80
2022-08-30T08:41:52.171Z,36.63
2022-08-30T08:43:15.228Z,36.64
2022-08-30T08:44:44.086Z,36.30
2022-08-30T08:46:02.445Z,35.69
2022-08-30T08:47:40.018Z,35.90
2022-08-30T08:49:00.803Z,36.80
2022-08-30T08:50:17.446Z,38.11
2022-08-30T08:51:54.372Z,38.97
2022-08-30T08:53:50.712Z,39.23
2022-08-30T08:55:26.241Z,40.01
2022-08-30T08:56:30.814Z,40.58
2022-08-30T08:57:38.348Z,40.65
2022-08-30T08:58:56.758Z,40.09
2022-08-30T09:00:02.128Z,39.58
2022-08-30T09:01:10.445Z,38.94
2022-08-30T09:05:03.825Z,37.18
2022-08-30T09:07:01.197Z,36.33
2022-08-30T09:08:18.142Z,35.72
2022-08-30T09:09:33.113Z,35.61
2022-08-30T09:42:22.996Z,29.27
2022-08-30T09:43:35.056Z,29.13
2022-08-30T09:44:39.737Z,28.97
2022-08-30T09:45:49.624Z,28.87
2022-08-30T09:47:00.599Z,28.81
2022-08-30T09:48:26.966Z,28.55
2022-08-30T09:49:39.795Z,28.56
2022-08-30T09:50:46.440Z,28.51
2022-08-30T09:52:24.819Z,28.54
2022-08-30T09:53:42.455Z,28.48
2022-08-30T09:55:17.949Z,28.58
2022-08-30T09:57:01.091Z,28.60
2022-08-30T09:58:20.513Z,28.57
2022-08-30T09:59:59.812Z,28.55
2022-08-30T10:45:14.041Z,27.17
2022-08-30T10:46:33.782Z,27.23
2022-08-30T10:48:49.834Z,27.06
2022-08-30T10:50:24.501Z,27.03
2022-08-30T10:51:45.455Z,26.87
2022-08-30T10:53:07.475Z,26.87
2022-08-30T10:54:35.285Z,26.73
2022-08-30T10:55:56.793Z,26.65
2022-08-30T10:57:01.134Z,26.62
2022-08-30T10:58:07.080Z,26.54
2022-08-30T10:59:11.884Z,26.57
2022-08-30T11:00:41.507Z,26.50
2022-08-30T11:02:45.345Z,26.53
2022-08-30T11:04:32.181Z,26.57
2022-08-30T11:05:56.894Z,26.50
2022-08-30T11:07:41.960Z,26.41
2022-08-30T11:09:07.225Z,26.36
2022-08-30T11:10:28.637Z,26.36
2022-08-30T11:11:56.308Z,26.41
2022-08-30T11:13:16.231Z,26.44
2022-08-30T11:14:25.531Z,26.32
2022-08-30T11:15:36.860Z,26.27
2022-08-30T11:16:46.250Z,26.29
2022-08-30T11:18:26.019Z,26.31
2022-08-30T11:19:40.863Z,26.27
2022-08-30T11:20:52.179Z,26.28
2022-08-30T11:22:27.452Z,26.24
2022-08-30T11:23:34.287Z,26.21
2022-08-30T11:25:10.027Z,26.10
2022-08-30T11:26:45.918Z,26.18
2022-08-30T11:59:26.936Z,25.28
2022-08-30T12:00:44.201Z,25.30
2022-08-30T12:01:58.908Z,25.24
2022-08-30T12:03:30.118Z,25.27
2022-08-30T12:04:47.440Z,25.37
2022-08-30T12:06:00.161Z,25.45
2022-08-30T12:07:08.868Z,25.50
2022-08-30T12:08:35.212Z,25.58
2022-08-30T12:09:45.871Z,25.65
2022-08-30T12:11:03.024Z,25.65
2022-08-30T12:12:12.662Z,25.72
2022-08-30T12:13:34.499Z,25.71
2022-08-30T12:14:57.614Z,25.75
2022-08-30T12:16:25.162Z,25.74
2022-08-30T12:18:15.348Z,25.82
2022-08-30T12:19:21.715Z,25.87
2022-08-30T12:20:38.030Z,25.74
2022-08-30T12:21:44.847Z,25.77
2022-08-30T12:22:50.092Z,25.82
2022-08-30T12:24:07.730Z,25.79
2022-08-30T12:25:38.332Z,25.71
2022-08-30T12:26:45.408Z,25.71
2022-08-30T12:27:50.175Z,25.67
2022-08-30T12:29:11.122Z,25.63
2022-08-30T12:30:14.681Z,25.68
2022-08-30T12:31:27.154Z,25.61
2022-08-30T12:32:31.384Z,25.66
2022-08-30T12:33:43.460Z,25.57
2022-08-30T12:34:46.889Z,25.67
2022-08-30T12:35:50.378Z,25.63
2022-08-30T12:37:04.860Z,25.68
2022-08-30T12:38:19.284Z,25.68
2022-08-30T12:39:44.217Z,25.63
2022-08-30T12:41:00.304Z,25.63
2022-08-30T12:42:49.825Z,25.67
2022-08-30T12:43:53.476Z,25.66
2022-08-30T12:45:03.239Z,25.58
2022-08-30T12:46:15.256Z,25.52
2022-08-30T12:47:39.302Z,25.57
2022-08-30T12:48:45.274Z,25.61
2022-08-30T12:49:50.828Z,25.62
2022-08-30T12:51:01.135Z,25.58
2022-08-30T12:52:29.411Z,25.68
2022-08-30T12:53:42.861Z,25.72
2022-08-30T12:54:47.539Z,25.66
2022-08-30T12:56:06.984Z,25.76
2022-08-30T12:57:32.349Z,25.78
2022-08-30T12:58:45.945Z,25.74
2022-08-30T12:59:59.235Z,25.79
2022-08-30T13:01:27.803Z,25.87
2022-08-30T13:02:54.918Z,25.77
2022-08-30T13:04:13.344Z,25.81
2022-08-30T13:05:44.561Z,25.79
2022-08-30T13:06:56.260Z,25.79
2022-08-30T13:08:27.673Z,25.70
2022-08-30T13:09:46.115Z,25.74
2022-08-30T13:11:11.082Z,25.67
2022-08-30T13:12:26.747Z,25.66
2022-08-30T13:13:52.259Z,25.78
2022-08-30T13:15:29.610Z,25.77
2022-08-30T13:16:41.257Z,25.78
2022-08-30T13:17:48.725Z,25.85
2022-08-30T13:19:20.218Z,25.87
2022-08-30T13:20:26.296Z,25.80
2022-08-30T13:21:35.564Z,25.67
2022-08-30T13:22:42.237Z,25.93
2022-08-30T13:23:45.715Z,25.91
2022-08-30T13:24:53.363Z,25.94
2022-08-30T13:25:57.172Z,25.97
2022-08-30T13:27:12.011Z,26.02
2022-08-30T13:28:15.719Z,25.94
2022-08-30T13:29:27.592Z,26.08
2022-08-30T13:30:32.412Z,26.01
2022-08-30T13:31:37.388Z,26.03
2022-08-30T13:32:41.831Z,26.09
2022-08-30T13:33:46.499Z,26.04
2022-08-30T13:34:50.182Z,26.12
2022-08-30T13:35:53.963Z,26.13
2022-08-30T13:37:00.079Z,26.14
2022-08-30T13:38:04.301Z,26.13
2022-08-30T13:39:08.013Z,26.21
2022-08-30T13:40:15.348Z,26.24
2022-08-30T13:41:20.846Z,26.22
2022-08-30T13:42:32.254Z,26.35
2022-08-30T13:44:09.490Z,26.37
2022-08-30T13:44:59.818Z,26.42
2022-08-30T13:46:03.516Z,26.39
2022-08-30T13:48:33.936Z,26.28
2022-08-30T13:49:46.611Z,26.29
2022-08-30T13:50:50.351Z,26.26
2022-08-30T13:52:19.315Z,26.22
2022-08-30T13:53:51.958Z,26.11
2022-08-30T13:54:41.618Z,26.08
2022-08-30T13:55:45.464Z,26.03
2022-08-30T13:56:55.104Z,25.99
2022-08-30T13:57:58.568Z,25.95
2022-08-30T13:59:03.632Z,25.88
2022-08-30T14:00:18.022Z,25.69
2022-08-30T14:01:22.045Z,25.72
2022-08-30T14:02:26.011Z,25.64
2022-08-30T14:03:29.975Z,25.54
2022-08-30T14:04:34.119Z,25.52
2022-08-30T14:05:49.457Z,25.46
2022-08-30T14:09:53.067Z,25.65
2022-08-30T14:10:58.531Z,25.64
2022-08-30T14:12:02.706Z,25.62
2022-08-30T14:13:18.585Z,25.60
2022-08-30T14:14:39.302Z,25.61
2022-08-30T14:15:47.148Z,25.73
2022-08-30T14:16:53.308Z,25.74
2022-08-30T14:17:56.998Z,25.78
2022-08-30T14:19:04.899Z,25.78
2022-08-30T14:20:15.012Z,25.81
2022-08-30T14:21:24.792Z,25.78
2022-08-30T14:22:28.595Z,25.75
2022-08-30T14:23:32.117Z,25.75
2022-08-30T14:24:35.957Z,25.75
2022-08-30T14:25:41.010Z,25.79
2022-08-30T14:26:51.288Z,25.76
2022-08-30T14:27:56.795Z,25.76
2022-08-30T14:29:10.333Z,25.81
2022-08-30T14:30:16.771Z,25.84
2022-08-30T14:31:24.947Z,25.88
2022-08-30T14:32:29.182Z,25.86
2022-08-30T14:33:33.054Z,25.79
2022-08-30T14:34:36.950Z,25.85
2022-08-30T14:35:40.479Z,25.89
2022-08-30T14:36:46.581Z,25.90
2022-08-30T14:37:51.553Z,25.97
2022-08-30T14:38:55.180Z,26.04
2022-08-30T14:39:59.109Z,26.09
2022-08-30T14:41:05.551Z,26.11
2022-08-30T14:42:11.979Z,26.24
2022-08-30T14:43:22.614Z,26.22
2022-08-30T14:44:27.824Z,26.35
2022-08-30T14:45:31.457Z,26.42
2022-08-30T14:46:35.317Z,26.51
2022-08-30T14:47:39.352Z,26.56
2022-08-30T14:48:43.226Z,26.60
2022-08-30T14:49:47.356Z,26.64
2022-08-30T14:50:51.297Z,26.64
2022-08-30T14:51:56.481Z,26.72
2022-08-30T14:53:00.750Z,26.72
2022-08-30T14:54:04.753Z,26.66
2022-08-30T14:55:11.806Z,26.66
2022-08-30T14:56:19.989Z,26.74
2022-08-30T14:57:23.682Z,26.76
2022-08-30T14:58:27.655Z,26.66
2022-08-30T14:59:31.349Z,26.76
2022-08-30T15:00:34.972Z,26.80
2022-08-30T15:01:41.549Z,26.75
2022-08-30T15:02:45.486Z,26.85
2022-08-30T15:03:49.544Z,26.74
2022-08-30T15:04:54.834Z,26.85
2022-08-30T15:05:58.309Z,26.74
2022-08-30T15:07:02.317Z,26.74
2022-08-30T15:08:07.398Z,26.65
2022-08-30T15:09:14.968Z,26.59
2022-08-30T15:10:21.281Z,26.48
2022-08-30T15:11:26.237Z,26.44
2022-08-30T15:12:30.163Z,26.41
2022-08-30T15:13:33.906Z,26.33
2022-08-30T15:14:37.848Z,26.28
2022-08-30T15:15:43.631Z,26.28
2022-08-30T15:16:47.431Z,26.19
2022-08-30T15:17:52.780Z,26.03
2022-08-30T15:19:02.907Z,26.09
2022-08-30T15:20:10.373Z,26.06
2022-08-30T15:21:15.153Z,26.01
2022-08-30T15:22:19.142Z,25.94
2022-08-30T15:23:24.983Z,25.88
2022-08-30T15:24:29.997Z,25.83
2022-08-30T15:25:33.798Z,25.78
2022-08-30T15:26:41.717Z,25.79
2022-08-30T15:27:46.920Z,25.78
2022-08-30T15:28:54.282Z,25.77
2022-08-30T15:29:57.768Z,25.65
2022-08-30T15:31:06.289Z,25.69
2022-08-30T15:32:12.010Z,25.66
2022-08-30T15:33:15.653Z,25.60
2022-08-30T15:34:26.241Z,25.56
2022-08-30T15:35:32.343Z,25.54
2022-08-30T15:36:37.021Z,25.50
2022-08-30T15:37:40.683Z,25.42
2022-08-30T15:38:44.241Z,25.42
2022-08-30T15:39:50.958Z,25.39
2022-08-30T15:40:54.564Z,25.18
2022-08-30T15:42:01.214Z,25.24
2022-08-30T15:43:05.554Z,25.29
2022-08-30T15:44:09.862Z,25.21
2022-08-30T15:45:15.235Z,25.24
2022-08-30T15:46:38.052Z,25.15
2022-08-30T15:47:41.882Z,25.23
2022-08-30T15:48:47.383Z,25.23
2022-08-30T15:50:02.153Z,25.23
2022-08-30T15:51:07.686Z,25.30
2022-08-30T15:52:12.921Z,25.25
2022-08-30T15:53:16.865Z,25.30
2022-08-30T15:54:23.904Z,25.31
2022-08-30T15:55:27.932Z,25.30
2022-08-30T15:56:33.600Z,25.28
2022-08-30T15:57:37.060Z,25.28
2022-08-30T15:58:42.365Z,25.26
2022-08-30T15:59:46.111Z,25.28
2022-08-30T16:00:49.618Z,25.31
2022-08-30T16:01:53.486Z,25.05
2022-08-30T16:02:57.064Z,25.25
2022-08-30T16:04:02.139Z,25.27
2022-08-30T16:05:06.715Z,25.27
2022-08-30T16:06:23.805Z,25.32
2022-08-30T16:07:27.704Z,25.31
2022-08-30T16:08:31.276Z,25.19
2022-08-30T16:09:38.367Z,25.12
2022-08-30T16:10:43.256Z,25.22
2022-08-30T16:11:48.270Z,25.24
2022-08-30T16:12:52.063Z,25.24
2022-08-30T16:13:57.595Z,25.22
2022-08-30T16:15:01.849Z,25.15
2022-08-30T16:16:09.705Z,25.15
2022-08-30T16:17:13.403Z,25.13
2022-08-30T16:18:16.995Z,25.11
2022-08-30T16:19:21.109Z,24.99
2022-08-30T16:20:26.074Z,25.15
2022-08-30T16:21:33.142Z,25.09
2022-08-30T16:22:36.794Z,25.08
2022-08-30T16:23:43.528Z,25.14
2022-08-30T16:24:47.081Z,25.15
2022-08-30T16:25:51.551Z,25.14
2022-08-30T16:26:55.644Z,25.10
2022-08-30T16:27:59.161Z,25.02
2022-08-30T16:29:07.215Z,25.10
2022-08-30T16:30:13.766Z,25.09
2022-08-30T16:31:19.466Z,25.10
2022-08-30T16:32:23.228Z,25.02
2022-08-30T16:33:27.807Z,24.99
2022-08-30T16:34:31.608Z,25.01
2022-08-30T16:35:37.088Z,24.96
2022-08-30T16:36:42.456Z,24.94
2022-08-30T16:37:46.507Z,24.97
2022-08-30T16:38:53.509Z,24.94
2022-08-30T16:39:59.708Z,24.82
2022-08-30T16:41:09.796Z,24.86
2022-08-30T16:42:21.033Z,24.84
2022-08-30T16:43:25.290Z,24.91
2022-08-30T16:44:29.965Z,24.81
2022-08-30T16:45:34.708Z,24.84
2022-08-30T16:46:41.275Z,24.77
2022-08-30T16:47:45.618Z,24.77
2022-08-30T16:48:49.731Z,24.87
2022-08-30T16:49:53.578Z,24.82
2022-08-30T16:51:17.802Z,24.78